This is the latest recevied weather packets stored in our database for station/object KG7QQL. If no packets are shown the sender has not sent any weather packets the latest 10 day(s).
| Time | Temp. | Humidity | Pressure | Rain* | Wind** | Luminosity | Snow |
|---|---|---|---|---|---|---|---|
| 1777687319 | 17.22° C | 65% | - | 0 mm | - | - | - |
| 1777687017 | 17.22° C | 66% | - | 0 mm | - | - | - |
| 1777686713 | 17.78° C | 66% | - | 0 mm | - | - | - |
| 1777686411 | 17.78° C | 66% | - | 0 mm | - | - | - |
| 1777686107 | 17.78° C | 66% | - | 0 mm | - | - | - |
| 1777685803 | 17.78° C | 66% | - | 0 mm | - | - | - |
| 1777685498 | 17.22° C | 67% | - | 0 mm | - | - | - |
| 1777685196 | 17.22° C | 67% | - | 0 mm | - | - | - |
| 1777684895 | 17.22° C | 67% | - | 0 mm | - | - | - |
| 1777684591 | 17.78° C | 66% | - | 0 mm | - | - | - |
| 1777684286 | 17.22° C | 68% | - | 0 mm | - | - | - |
| 1777683984 | 16.67° C | 70% | - | 0 mm | - | - | - |
| 1777683681 | 16.67° C | 70% | - | 0 mm | - | - | - |
| 1777683378 | 17.22° C | 68% | - | 0 mm | - | - | - |
| 1777683076 | 17.78° C | 67% | - | 0 mm | - | - | - |
| 1777682771 | 17.78° C | 66% | - | 0 mm | - | - | - |
| 1777682468 | 18.33° C | 64% | - | 0 mm | - | - | - |
| 1777682167 | 18.33° C | 64% | - | 0 mm | - | - | - |
| 1777681863 | 18.89° C | 61% | - | 0 mm | - | - | - |
| 1777681559 | 19.44° C | 60% | - | 0 mm | - | - | - |
| 1777681256 | 18.89° C | 62% | - | 0 mm | - | - | - |
| 1777680955 | 18.89° C | 63% | - | 0 mm | - | - | - |
| 1777680651 | 18.89° C | 63% | - | 0 mm | - | - | - |
| 1777680350 | 18.89° C | 62% | - | 0 mm | - | - | - |
| 1777680046 | 19.44° C | 62% | - | 0 mm | - | - | - |
* Rain latest hour (hover to see other rain measurements)
** Current wind speed in m/s (hover to see current wind gust speed)